sensor_id;sensor_type;location;lat;lon;timestamp;P1;durP1;ratioP1;P2;durP2;ratioP2
43519;SDS011;46848;51.980;5.918;2023-08-17T00:00:14;4.95;;;1.38;;
43519;SDS011;46848;51.980;5.918;2023-08-17T00:02:40;6.10;;;1.27;;
43519;SDS011;46848;51.980;5.918;2023-08-17T00:05:08;6.15;;;1.33;;
43519;SDS011;46848;51.980;5.918;2023-08-17T00:07:35;4.35;;;1.05;;
43519;SDS011;46848;51.980;5.918;2023-08-17T00:10:04;3.15;;;1.15;;
43519;SDS011;46848;51.980;5.918;2023-08-17T00:12:29;4.32;;;1.17;;
43519;SDS011;46848;51.980;5.918;2023-08-17T00:14:55;4.03;;;1.30;;
43519;SDS011;46848;51.980;5.918;2023-08-17T00:17:21;6.10;;;1.30;;
43519;SDS011;46848;51.980;5.918;2023-08-17T00:19:47;3.38;;;1.05;;
43519;SDS011;46848;51.980;5.918;2023-08-17T00:22:13;3.95;;;1.00;;
43519;SDS011;46848;51.980;5.918;2023-08-17T00:24:38;4.28;;;0.90;;
43519;SDS011;46848;51.980;5.918;2023-08-17T00:27:06;3.45;;;0.85;;
43519;SDS011;46848;51.980;5.918;2023-08-17T00:29:32;3.83;;;1.13;;
43519;SDS011;46848;51.980;5.918;2023-08-17T00:32:00;4.78;;;1.08;;
43519;SDS011;46848;51.980;5.918;2023-08-17T00:34:26;4.28;;;1.10;;
43519;SDS011;46848;51.980;5.918;2023-08-17T00:36:52;3.83;;;1.17;;
43519;SDS011;46848;51.980;5.918;2023-08-17T00:39:17;3.17;;;0.95;;
43519;SDS011;46848;51.980;5.918;2023-08-17T00:41:44;4.22;;;1.30;;
43519;SDS011;46848;51.980;5.918;2023-08-17T00:44:10;2.60;;;1.02;;
43519;SDS011;46848;51.980;5.918;2023-08-17T00:46:45;5.22;;;1.75;;
43519;SDS011;46848;51.980;5.918;2023-08-17T00:49:10;5.28;;;1.08;;
43519;SDS011;46848;51.980;5.918;2023-08-17T00:51:36;4.80;;;1.13;;
43519;SDS011;46848;51.980;5.918;2023-08-17T00:54:02;3.28;;;1.00;;
43519;SDS011;46848;51.980;5.918;2023-08-17T00:56:29;3.78;;;1.30;;
43519;SDS011;46848;51.980;5.918;2023-08-17T00:58:55;4.28;;;1.40;;
43519;SDS011;46848;51.980;5.918;2023-08-17T01:01:21;3.35;;;1.20;;
43519;SDS011;46848;51.980;5.918;2023-08-17T01:03:47;6.53;;;1.92;;
43519;SDS011;46848;51.980;5.918;2023-08-17T01:06:12;3.03;;;1.27;;
43519;SDS011;46848;51.980;5.918;2023-08-17T01:08:38;3.67;;;1.08;;
43519;SDS011;46848;51.980;5.918;2023-08-17T01:13:44;4.70;;;1.00;;
43519;SDS011;46848;51.980;5.918;2023-08-17T01:16:21;4.78;;;1.38;;
43519;SDS011;46848;51.980;5.918;2023-08-17T01:18:53;5.05;;;1.27;;
43519;SDS011;46848;51.980;5.918;2023-08-17T01:21:21;4.78;;;1.27;;
43519;SDS011;46848;51.980;5.918;2023-08-17T01:23:49;4.50;;;0.90;;
43519;SDS011;46848;51.980;5.918;2023-08-17T01:26:16;3.60;;;1.10;;
43519;SDS011;46848;51.980;5.918;2023-08-17T01:28:42;4.20;;;1.35;;
43519;SDS011;46848;51.980;5.918;2023-08-17T01:33:58;2.78;;;1.10;;
43519;SDS011;46848;51.980;5.918;2023-08-17T01:36:33;7.45;;;1.50;;
43519;SDS011;46848;51.980;5.918;2023-08-17T01:39:07;3.90;;;1.20;;
43519;SDS011;46848;51.980;5.918;2023-08-17T01:41:33;4.05;;;1.10;;
43519;SDS011;46848;51.980;5.918;2023-08-17T01:44:00;3.67;;;1.10;;
43519;SDS011;46848;51.980;5.918;2023-08-17T01:46:29;5.05;;;1.55;;
43519;SDS011;46848;51.980;5.918;2023-08-17T01:48:57;5.45;;;1.52;;
43519;SDS011;46848;51.980;5.918;2023-08-17T01:51:23;4.80;;;1.40;;
43519;SDS011;46848;51.980;5.918;2023-08-17T01:53:49;3.15;;;1.15;;
43519;SDS011;46848;51.980;5.918;2023-08-17T01:56:14;3.80;;;1.30;;
43519;SDS011;46848;51.980;5.918;2023-08-17T01:58:40;4.78;;;1.10;;
43519;SDS011;46848;51.980;5.918;2023-08-17T02:01:06;3.60;;;1.35;;
43519;SDS011;46848;51.980;5.918;2023-08-17T02:03:32;4.93;;;1.35;;
43519;SDS011;46848;51.980;5.918;2023-08-17T02:05:58;3.58;;;1.17;;
43519;SDS011;46848;51.980;5.918;2023-08-17T02:08:24;5.78;;;1.17;;
43519;SDS011;46848;51.980;5.918;2023-08-17T02:10:50;5.63;;;1.30;;
43519;SDS011;46848;51.980;5.918;2023-08-17T02:13:15;4.38;;;1.27;;
43519;SDS011;46848;51.980;5.918;2023-08-17T02:15:41;2.88;;;1.20;;
43519;SDS011;46848;51.980;5.918;2023-08-17T02:18:07;5.85;;;1.95;;
43519;SDS011;46848;51.980;5.918;2023-08-17T02:20:33;6.60;;;1.48;;
43519;SDS011;46848;51.980;5.918;2023-08-17T02:22:59;5.28;;;1.25;;
43519;SDS011;46848;51.980;5.918;2023-08-17T02:25:24;9.88;;;2.10;;
43519;SDS011;46848;51.980;5.918;2023-08-17T02:27:50;4.95;;;1.13;;
43519;SDS011;46848;51.980;5.918;2023-08-17T02:30:15;5.95;;;1.88;;
43519;SDS011;46848;51.980;5.918;2023-08-17T02:32:41;3.47;;;1.20;;
43519;SDS011;46848;51.980;5.918;2023-08-17T02:35:07;3.60;;;1.42;;
43519;SDS011;46848;51.980;5.918;2023-08-17T02:37:33;5.00;;;1.25;;
43519;SDS011;46848;51.980;5.918;2023-08-17T02:39:58;4.57;;;1.00;;
43519;SDS011;46848;51.980;5.918;2023-08-17T02:42:24;4.18;;;1.23;;
43519;SDS011;46848;51.980;5.918;2023-08-17T02:44:50;3.53;;;1.02;;
43519;SDS011;46848;51.980;5.918;2023-08-17T02:47:15;2.67;;;1.05;;
43519;SDS011;46848;51.980;5.918;2023-08-17T02:49:41;4.70;;;1.17;;
43519;SDS011;46848;51.980;5.918;2023-08-17T02:52:06;4.53;;;1.25;;
43519;SDS011;46848;51.980;5.918;2023-08-17T02:54:32;4.43;;;1.27;;
43519;SDS011;46848;51.980;5.918;2023-08-17T02:56:57;3.67;;;1.23;;
43519;SDS011;46848;51.980;5.918;2023-08-17T02:59:24;3.33;;;1.10;;
43519;SDS011;46848;51.980;5.918;2023-08-17T03:01:49;5.25;;;1.50;;
43519;SDS011;46848;51.980;5.918;2023-08-17T03:04:15;3.33;;;1.20;;
43519;SDS011;46848;51.980;5.918;2023-08-17T03:06:41;4.75;;;1.08;;
43519;SDS011;46848;51.980;5.918;2023-08-17T03:09:06;4.05;;;1.13;;
43519;SDS011;46848;51.980;5.918;2023-08-17T03:11:32;3.35;;;1.20;;
43519;SDS011;46848;51.980;5.918;2023-08-17T03:13:57;5.32;;;1.20;;
43519;SDS011;46848;51.980;5.918;2023-08-17T03:16:28;5.22;;;1.40;;
43519;SDS011;46848;51.980;5.918;2023-08-17T03:18:55;5.20;;;1.20;;
43519;SDS011;46848;51.980;5.918;2023-08-17T03:21:21;5.65;;;1.00;;
43519;SDS011;46848;51.980;5.918;2023-08-17T03:23:47;3.63;;;1.20;;
43519;SDS011;46848;51.980;5.918;2023-08-17T03:26:13;4.80;;;1.25;;
43519;SDS011;46848;51.980;5.918;2023-08-17T03:28:39;4.35;;;1.13;;
43519;SDS011;46848;51.980;5.918;2023-08-17T03:31:06;3.05;;;1.00;;
43519;SDS011;46848;51.980;5.918;2023-08-17T03:33:33;5.78;;;1.70;;
43519;SDS011;46848;51.980;5.918;2023-08-17T03:35:59;6.25;;;1.60;;
43519;SDS011;46848;51.980;5.918;2023-08-17T03:38:25;6.25;;;1.55;;
43519;SDS011;46848;51.980;5.918;2023-08-17T03:40:50;4.40;;;1.20;;
43519;SDS011;46848;51.980;5.918;2023-08-17T03:43:16;4.25;;;1.15;;
43519;SDS011;46848;51.980;5.918;2023-08-17T03:45:42;4.43;;;1.27;;
43519;SDS011;46848;51.980;5.918;2023-08-17T03:48:08;5.38;;;1.38;;
43519;SDS011;46848;51.980;5.918;2023-08-17T03:50:34;6.68;;;1.80;;
43519;SDS011;46848;51.980;5.918;2023-08-17T03:52:59;7.90;;;1.50;;
43519;SDS011;46848;51.980;5.918;2023-08-17T03:55:25;5.07;;;1.48;;
43519;SDS011;46848;51.980;5.918;2023-08-17T03:57:50;5.32;;;1.60;;
43519;SDS011;46848;51.980;5.918;2023-08-17T04:00:16;3.15;;;1.35;;
43519;SDS011;46848;51.980;5.918;2023-08-17T04:02:42;5.95;;;1.38;;
43519;SDS011;46848;51.980;5.918;2023-08-17T04:05:08;3.92;;;1.25;;
43519;SDS011;46848;51.980;5.918;2023-08-17T04:07:34;3.53;;;1.10;;
43519;SDS011;46848;51.980;5.918;2023-08-17T04:09:59;4.07;;;1.10;;
43519;SDS011;46848;51.980;5.918;2023-08-17T04:12:25;5.07;;;1.15;;
43519;SDS011;46848;51.980;5.918;2023-08-17T04:14:50;5.30;;;1.40;;
43519;SDS011;46848;51.980;5.918;2023-08-17T04:17:16;6.18;;;1.40;;
43519;SDS011;46848;51.980;5.918;2023-08-17T04:19:42;3.50;;;1.08;;
43519;SDS011;46848;51.980;5.918;2023-08-17T04:22:07;5.60;;;1.48;;
43519;SDS011;46848;51.980;5.918;2023-08-17T04:24:33;3.13;;;1.08;;
43519;SDS011;46848;51.980;5.918;2023-08-17T04:26:58;3.33;;;1.20;;
43519;SDS011;46848;51.980;5.918;2023-08-17T04:29:24;2.20;;;0.95;;
43519;SDS011;46848;51.980;5.918;2023-08-17T04:31:49;4.53;;;1.20;;
43519;SDS011;46848;51.980;5.918;2023-08-17T04:34:15;4.10;;;1.27;;
43519;SDS011;46848;51.980;5.918;2023-08-17T04:36:41;4.50;;;1.10;;
43519;SDS011;46848;51.980;5.918;2023-08-17T04:39:06;5.43;;;1.27;;
43519;SDS011;46848;51.980;5.918;2023-08-17T04:41:33;3.63;;;1.20;;
43519;SDS011;46848;51.980;5.918;2023-08-17T04:43:58;3.47;;;1.20;;
43519;SDS011;46848;51.980;5.918;2023-08-17T04:46:24;2.15;;;0.90;;
43519;SDS011;46848;51.980;5.918;2023-08-17T04:48:49;6.10;;;1.10;;
43519;SDS011;46848;51.980;5.918;2023-08-17T04:51:15;3.17;;;0.95;;
43519;SDS011;46848;51.980;5.918;2023-08-17T04:53:40;4.53;;;1.17;;
43519;SDS011;46848;51.980;5.918;2023-08-17T04:56:06;5.40;;;1.15;;
43519;SDS011;46848;51.980;5.918;2023-08-17T04:58:32;4.75;;;1.20;;
43519;SDS011;46848;51.980;5.918;2023-08-17T05:00:58;3.78;;;1.00;;
43519;SDS011;46848;51.980;5.918;2023-08-17T05:03:24;5.70;;;1.08;;
43519;SDS011;46848;51.980;5.918;2023-08-17T05:05:51;3.58;;;1.10;;
43519;SDS011;46848;51.980;5.918;2023-08-17T05:08:18;3.47;;;1.10;;
43519;SDS011;46848;51.980;5.918;2023-08-17T05:10:43;4.35;;;1.13;;
43519;SDS011;46848;51.980;5.918;2023-08-17T05:13:09;4.43;;;1.10;;
43519;SDS011;46848;51.980;5.918;2023-08-17T05:15:34;3.88;;;1.00;;
43519;SDS011;46848;51.980;5.918;2023-08-17T05:18:00;4.93;;;1.23;;
43519;SDS011;46848;51.980;5.918;2023-08-17T05:20:26;4.45;;;1.27;;
43519;SDS011;46848;51.980;5.918;2023-08-17T05:22:51;5.72;;;1.30;;
43519;SDS011;46848;51.980;5.918;2023-08-17T05:25:17;3.05;;;1.00;;
43519;SDS011;46848;51.980;5.918;2023-08-17T05:27:42;4.68;;;1.02;;
43519;SDS011;46848;51.980;5.918;2023-08-17T05:30:08;2.33;;;0.85;;
43519;SDS011;46848;51.980;5.918;2023-08-17T05:32:33;3.45;;;0.80;;
43519;SDS011;46848;51.980;5.918;2023-08-17T05:34:59;4.30;;;1.00;;
43519;SDS011;46848;51.980;5.918;2023-08-17T05:37:24;2.95;;;0.85;;
43519;SDS011;46848;51.980;5.918;2023-08-17T05:39:50;4.28;;;1.02;;
43519;SDS011;46848;51.980;5.918;2023-08-17T05:42:16;4.57;;;1.27;;
43519;SDS011;46848;51.980;5.918;2023-08-17T05:44:41;5.03;;;1.30;;
43519;SDS011;46848;51.980;5.918;2023-08-17T05:47:07;3.13;;;0.80;;
43519;SDS011;46848;51.980;5.918;2023-08-17T05:49:32;5.05;;;1.23;;
43519;SDS011;46848;51.980;5.918;2023-08-17T05:51:58;5.47;;;1.15;;
43519;SDS011;46848;51.980;5.918;2023-08-17T05:54:23;5.07;;;1.10;;
43519;SDS011;46848;51.980;5.918;2023-08-17T05:56:49;3.85;;;0.93;;
43519;SDS011;46848;51.980;5.918;2023-08-17T05:59:14;4.13;;;1.42;;
43519;SDS011;46848;51.980;5.918;2023-08-17T06:01:40;4.20;;;1.17;;
43519;SDS011;46848;51.980;5.918;2023-08-17T06:04:06;4.80;;;1.30;;
43519;SDS011;46848;51.980;5.918;2023-08-17T06:06:32;4.68;;;1.40;;
43519;SDS011;46848;51.980;5.918;2023-08-17T06:08:58;4.53;;;1.52;;
43519;SDS011;46848;51.980;5.918;2023-08-17T06:11:23;2.88;;;1.00;;
43519;SDS011;46848;51.980;5.918;2023-08-17T06:13:49;3.42;;;1.30;;
43519;SDS011;46848;51.980;5.918;2023-08-17T06:16:15;5.68;;;1.02;;
43519;SDS011;46848;51.980;5.918;2023-08-17T06:18:41;3.92;;;0.80;;
43519;SDS011;46848;51.980;5.918;2023-08-17T06:21:07;4.53;;;1.13;;
43519;SDS011;46848;51.980;5.918;2023-08-17T06:23:33;2.78;;;0.90;;
43519;SDS011;46848;51.980;5.918;2023-08-17T06:25:59;2.65;;;0.80;;
43519;SDS011;46848;51.980;5.918;2023-08-17T06:28:25;2.92;;;0.80;;
43519;SDS011;46848;51.980;5.918;2023-08-17T06:30:55;3.28;;;1.02;;
43519;SDS011;46848;51.980;5.918;2023-08-17T06:33:21;3.15;;;0.95;;
43519;SDS011;46848;51.980;5.918;2023-08-17T06:35:48;3.60;;;0.80;;
43519;SDS011;46848;51.980;5.918;2023-08-17T06:38:14;3.35;;;1.25;;
43519;SDS011;46848;51.980;5.918;2023-08-17T06:40:39;3.90;;;1.30;;
43519;SDS011;46848;51.980;5.918;2023-08-17T06:43:05;1.88;;;1.00;;
43519;SDS011;46848;51.980;5.918;2023-08-17T06:45:31;4.18;;;1.17;;
43519;SDS011;46848;51.980;5.918;2023-08-17T06:47:57;3.15;;;1.15;;
43519;SDS011;46848;51.980;5.918;2023-08-17T06:50:23;3.75;;;1.17;;
43519;SDS011;46848;51.980;5.918;2023-08-17T06:52:49;4.93;;;1.10;;
43519;SDS011;46848;51.980;5.918;2023-08-17T06:55:15;6.53;;;1.23;;
43519;SDS011;46848;51.980;5.918;2023-08-17T06:57:41;7.03;;;1.48;;
43519;SDS011;46848;51.980;5.918;2023-08-17T07:00:07;6.95;;;1.08;;
43519;SDS011;46848;51.980;5.918;2023-08-17T07:02:33;5.88;;;1.30;;
43519;SDS011;46848;51.980;5.918;2023-08-17T07:04:59;4.93;;;1.20;;
43519;SDS011;46848;51.980;5.918;2023-08-17T07:07:25;3.63;;;1.25;;
43519;SDS011;46848;51.980;5.918;2023-08-17T07:09:51;2.67;;;1.23;;
43519;SDS011;46848;51.980;5.918;2023-08-17T07:12:17;2.97;;;1.25;;
43519;SDS011;46848;51.980;5.918;2023-08-17T07:14:44;6.38;;;1.60;;
43519;SDS011;46848;51.980;5.918;2023-08-17T07:17:09;3.90;;;1.30;;
43519;SDS011;46848;51.980;5.918;2023-08-17T07:19:35;4.13;;;1.27;;
43519;SDS011;46848;51.980;5.918;2023-08-17T07:22:01;3.58;;;1.10;;
43519;SDS011;46848;51.980;5.918;2023-08-17T07:24:26;4.93;;;1.25;;
43519;SDS011;46848;51.980;5.918;2023-08-17T07:26:52;4.13;;;1.20;;
43519;SDS011;46848;51.980;5.918;2023-08-17T07:29:18;3.53;;;1.05;;
43519;SDS011;46848;51.980;5.918;2023-08-17T07:31:43;4.50;;;1.40;;
43519;SDS011;46848;51.980;5.918;2023-08-17T07:34:09;3.67;;;1.00;;
43519;SDS011;46848;51.980;5.918;2023-08-17T07:36:35;2.92;;;1.05;;
43519;SDS011;46848;51.980;5.918;2023-08-17T07:39:02;2.58;;;1.00;;
43519;SDS011;46848;51.980;5.918;2023-08-17T07:41:29;4.75;;;1.40;;
43519;SDS011;46848;51.980;5.918;2023-08-17T07:43:54;7.82;;;2.20;;
43519;SDS011;46848;51.980;5.918;2023-08-17T07:46:20;4.03;;;1.17;;
43519;SDS011;46848;51.980;5.918;2023-08-17T10:55:45;7.20;;;3.10;;
43519;SDS011;46848;51.980;5.918;2023-08-17T10:58:16;8.68;;;3.30;;
43519;SDS011;46848;51.980;5.918;2023-08-17T11:00:42;6.57;;;3.03;;
43519;SDS011;46848;51.980;5.918;2023-08-17T11:03:09;4.75;;;2.55;;
43519;SDS011;46848;51.980;5.918;2023-08-17T11:05:43;8.95;;;3.28;;
43519;SDS011;46848;51.980;5.918;2023-08-17T11:08:24;6.03;;;3.00;;
43519;SDS011;46848;51.980;5.918;2023-08-17T11:13:41;6.53;;;3.27;;
43519;SDS011;46848;51.980;5.918;2023-08-17T11:16:08;9.65;;;3.40;;
43519;SDS011;46848;51.980;5.918;2023-08-17T11:18:35;5.47;;;2.92;;
43519;SDS011;46848;51.980;5.918;2023-08-17T11:21:04;10.32;;;4.10;;
43519;SDS011;46848;51.980;5.918;2023-08-17T11:23:32;7.30;;;3.58;;
43519;SDS011;46848;51.980;5.918;2023-08-17T11:25:59;6.38;;;2.90;;
43519;SDS011;46848;51.980;5.918;2023-08-17T11:28:25;9.23;;;2.95;;
43519;SDS011;46848;51.980;5.918;2023-08-17T11:30:58;7.78;;;3.50;;
43519;SDS011;46848;51.980;5.918;2023-08-17T11:33:28;6.55;;;3.08;;
43519;SDS011;46848;51.980;5.918;2023-08-17T11:35:56;11.53;;;4.50;;
43519;SDS011;46848;51.980;5.918;2023-08-17T11:38:22;7.15;;;3.30;;
43519;SDS011;46848;51.980;5.918;2023-08-17T11:40:48;6.78;;;3.42;;
43519;SDS011;46848;51.980;5.918;2023-08-17T11:43:14;7.85;;;3.60;;
43519;SDS011;46848;51.980;5.918;2023-08-17T11:45:40;7.93;;;3.38;;
43519;SDS011;46848;51.980;5.918;2023-08-17T11:48:06;10.23;;;3.90;;
43519;SDS011;46848;51.980;5.918;2023-08-17T11:50:32;7.38;;;3.17;;
43519;SDS011;46848;51.980;5.918;2023-08-17T11:53:01;6.63;;;3.05;;
43519;SDS011;46848;51.980;5.918;2023-08-17T11:55:27;8.48;;;2.97;;
43519;SDS011;46848;51.980;5.918;2023-08-17T11:57:53;7.70;;;3.00;;
43519;SDS011;46848;51.980;5.918;2023-08-17T12:00:19;4.97;;;2.70;;
43519;SDS011;46848;51.980;5.918;2023-08-17T12:02:49;7.25;;;3.60;;
43519;SDS011;46848;51.980;5.918;2023-08-17T12:05:20;8.73;;;3.10;;
43519;SDS011;46848;51.980;5.918;2023-08-17T12:07:48;9.65;;;2.78;;
43519;SDS011;46848;51.980;5.918;2023-08-17T12:10:20;5.07;;;2.80;;
43519;SDS011;46848;51.980;5.918;2023-08-17T12:12:47;6.63;;;3.28;;
43519;SDS011;46848;51.980;5.918;2023-08-17T12:15:13;7.78;;;3.25;;
43519;SDS011;46848;51.980;5.918;2023-08-17T12:17:43;6.35;;;2.72;;
43519;SDS011;46848;51.980;5.918;2023-08-17T12:20:16;7.47;;;3.80;;
43519;SDS011;46848;51.980;5.918;2023-08-17T12:22:43;7.97;;;3.47;;
43519;SDS011;46848;51.980;5.918;2023-08-17T12:25:09;8.63;;;4.18;;
43519;SDS011;46848;51.980;5.918;2023-08-17T12:27:34;8.10;;;3.40;;
43519;SDS011;46848;51.980;5.918;2023-08-17T12:30:00;7.05;;;3.35;;
43519;SDS011;46848;51.980;5.918;2023-08-17T12:32:26;6.78;;;3.25;;
43519;SDS011;46848;51.980;5.918;2023-08-17T12:34:51;8.10;;;3.70;;
43519;SDS011;46848;51.980;5.918;2023-08-17T12:37:20;7.60;;;4.30;;
43519;SDS011;46848;51.980;5.918;2023-08-17T12:39:46;6.63;;;3.50;;
43519;SDS011;46848;51.980;5.918;2023-08-17T12:42:12;6.07;;;3.75;;
43519;SDS011;46848;51.980;5.918;2023-08-17T12:44:39;5.97;;;3.58;;
43519;SDS011;46848;51.980;5.918;2023-08-17T12:47:04;8.68;;;3.78;;
43519;SDS011;46848;51.980;5.918;2023-08-17T12:49:30;7.28;;;3.45;;
43519;SDS011;46848;51.980;5.918;2023-08-17T12:51:56;8.05;;;3.90;;
43519;SDS011;46848;51.980;5.918;2023-08-17T12:54:21;7.35;;;3.45;;
43519;SDS011;46848;51.980;5.918;2023-08-17T12:56:47;9.32;;;4.80;;
43519;SDS011;46848;51.980;5.918;2023-08-17T12:59:12;5.45;;;3.20;;
43519;SDS011;46848;51.980;5.918;2023-08-17T13:01:38;6.80;;;3.60;;
43519;SDS011;46848;51.980;5.918;2023-08-17T13:04:04;8.55;;;3.60;;
43519;SDS011;46848;51.980;5.918;2023-08-17T13:06:31;8.23;;;4.20;;
43519;SDS011;46848;51.980;5.918;2023-08-17T13:08:56;7.55;;;3.90;;
43519;SDS011;46848;51.980;5.918;2023-08-17T13:11:22;6.90;;;4.28;;
43519;SDS011;46848;51.980;5.918;2023-08-17T13:13:47;8.10;;;3.78;;
43519;SDS011;46848;51.980;5.918;2023-08-17T13:16:13;6.95;;;3.22;;
43519;SDS011;46848;51.980;5.918;2023-08-17T13:18:39;8.10;;;3.90;;
43519;SDS011;46848;51.980;5.918;2023-08-17T13:21:04;6.80;;;3.45;;
43519;SDS011;46848;51.980;5.918;2023-08-17T13:23:30;9.27;;;4.20;;
43519;SDS011;46848;51.980;5.918;2023-08-17T13:25:56;9.35;;;4.00;;
43519;SDS011;46848;51.980;5.918;2023-08-17T13:28:21;7.13;;;4.00;;
43519;SDS011;46848;51.980;5.918;2023-08-17T13:30:47;6.03;;;3.40;;
43519;SDS011;46848;51.980;5.918;2023-08-17T13:33:13;7.05;;;3.50;;
43519;SDS011;46848;51.980;5.918;2023-08-17T13:35:41;6.40;;;3.67;;
43519;SDS011;46848;51.980;5.918;2023-08-17T13:38:07;7.80;;;3.70;;
43519;SDS011;46848;51.980;5.918;2023-08-17T13:40:32;8.88;;;3.88;;
43519;SDS011;46848;51.980;5.918;2023-08-17T13:42:58;8.25;;;3.20;;
43519;SDS011;46848;51.980;5.918;2023-08-17T13:45:25;7.75;;;4.13;;
43519;SDS011;46848;51.980;5.918;2023-08-17T13:47:51;5.57;;;3.30;;
43519;SDS011;46848;51.980;5.918;2023-08-17T13:50:17;6.38;;;2.95;;
43519;SDS011;46848;51.980;5.918;2023-08-17T13:52:43;4.75;;;2.72;;
43519;SDS011;46848;51.980;5.918;2023-08-17T13:55:09;6.22;;;2.97;;
43519;SDS011;46848;51.980;5.918;2023-08-17T13:57:35;6.65;;;3.05;;
43519;SDS011;46848;51.980;5.918;2023-08-17T14:00:00;8.48;;;3.20;;
43519;SDS011;46848;51.980;5.918;2023-08-17T14:02:26;6.65;;;2.97;;
43519;SDS011;46848;51.980;5.918;2023-08-17T14:04:51;6.93;;;4.03;;
43519;SDS011;46848;51.980;5.918;2023-08-17T14:07:17;5.95;;;3.28;;
43519;SDS011;46848;51.980;5.918;2023-08-17T14:09:42;6.70;;;3.30;;
43519;SDS011;46848;51.980;5.918;2023-08-17T14:12:08;7.38;;;4.03;;
43519;SDS011;46848;51.980;5.918;2023-08-17T14:14:34;6.43;;;4.00;;
43519;SDS011;46848;51.980;5.918;2023-08-17T14:16:59;7.05;;;3.60;;
43519;SDS011;46848;51.980;5.918;2023-08-17T14:19:25;7.53;;;3.55;;
43519;SDS011;46848;51.980;5.918;2023-08-17T14:21:51;4.88;;;3.00;;
43519;SDS011;46848;51.980;5.918;2023-08-17T14:24:17;6.82;;;3.65;;
43519;SDS011;46848;51.980;5.918;2023-08-17T14:26:43;6.22;;;3.35;;
43519;SDS011;46848;51.980;5.918;2023-08-17T14:29:09;8.57;;;3.80;;
43519;SDS011;46848;51.980;5.918;2023-08-17T14:31:34;8.43;;;3.92;;
43519;SDS011;46848;51.980;5.918;2023-08-17T14:34:00;6.25;;;3.75;;
43519;SDS011;46848;51.980;5.918;2023-08-17T14:36:26;5.50;;;4.20;;
43519;SDS011;46848;51.980;5.918;2023-08-17T14:38:52;8.90;;;4.45;;
43519;SDS011;46848;51.980;5.918;2023-08-17T14:41:17;5.57;;;3.95;;
43519;SDS011;46848;51.980;5.918;2023-08-17T14:43:43;5.07;;;3.55;;
43519;SDS011;46848;51.980;5.918;2023-08-17T14:46:08;6.75;;;3.85;;
43519;SDS011;46848;51.980;5.918;2023-08-17T14:48:34;9.25;;;4.97;;
43519;SDS011;46848;51.980;5.918;2023-08-17T14:51:00;6.55;;;4.50;;
43519;SDS011;46848;51.980;5.918;2023-08-17T14:53:26;6.05;;;4.13;;
43519;SDS011;46848;51.980;5.918;2023-08-17T14:55:51;5.88;;;4.53;;
43519;SDS011;46848;51.980;5.918;2023-08-17T14:58:17;7.82;;;4.38;;
43519;SDS011;46848;51.980;5.918;2023-08-17T15:00:43;6.60;;;4.43;;
43519;SDS011;46848;51.980;5.918;2023-08-17T15:03:08;7.35;;;4.43;;
43519;SDS011;46848;51.980;5.918;2023-08-17T15:05:34;6.15;;;4.40;;
43519;SDS011;46848;51.980;5.918;2023-08-17T15:08:01;7.10;;;4.38;;
43519;SDS011;46848;51.980;5.918;2023-08-17T15:10:27;5.57;;;4.20;;
43519;SDS011;46848;51.980;5.918;2023-08-17T15:12:53;7.40;;;5.32;;
43519;SDS011;46848;51.980;5.918;2023-08-17T15:15:18;5.88;;;4.57;;
43519;SDS011;46848;51.980;5.918;2023-08-17T15:17:44;8.45;;;5.75;;
43519;SDS011;46848;51.980;5.918;2023-08-17T15:20:09;7.97;;;5.70;;
43519;SDS011;46848;51.980;5.918;2023-08-17T15:22:36;8.13;;;5.43;;
43519;SDS011;46848;51.980;5.918;2023-08-17T15:25:01;7.15;;;6.28;;
43519;SDS011;46848;51.980;5.918;2023-08-17T15:27:27;6.63;;;5.00;;
43519;SDS011;46848;51.980;5.918;2023-08-17T15:29:53;6.60;;;5.50;;
43519;SDS011;46848;51.980;5.918;2023-08-17T15:32:18;9.50;;;5.47;;
43519;SDS011;46848;51.980;5.918;2023-08-17T15:34:44;9.93;;;5.75;;
43519;SDS011;46848;51.980;5.918;2023-08-17T15:37:10;10.30;;;7.18;;
43519;SDS011;46848;51.980;5.918;2023-08-17T15:39:36;10.10;;;6.15;;
43519;SDS011;46848;51.980;5.918;2023-08-17T15:42:02;7.60;;;5.60;;
43519;SDS011;46848;51.980;5.918;2023-08-17T15:44:27;6.88;;;6.07;;
43519;SDS011;46848;51.980;5.918;2023-08-17T15:46:55;8.27;;;5.55;;
43519;SDS011;46848;51.980;5.918;2023-08-17T15:49:20;8.32;;;5.80;;
43519;SDS011;46848;51.980;5.918;2023-08-17T15:51:46;6.25;;;5.47;;
43519;SDS011;46848;51.980;5.918;2023-08-17T15:54:11;7.35;;;5.93;;
43519;SDS011;46848;51.980;5.918;2023-08-17T15:56:37;6.45;;;5.20;;
43519;SDS011;46848;51.980;5.918;2023-08-17T15:59:03;8.70;;;6.15;;
43519;SDS011;46848;51.980;5.918;2023-08-17T16:01:29;7.78;;;5.50;;
43519;SDS011;46848;51.980;5.918;2023-08-17T16:03:54;8.20;;;6.10;;
43519;SDS011;46848;51.980;5.918;2023-08-17T16:06:20;7.55;;;5.85;;
43519;SDS011;46848;51.980;5.918;2023-08-17T16:08:45;10.18;;;8.15;;
43519;SDS011;46848;51.980;5.918;2023-08-17T16:11:11;10.00;;;6.88;;
43519;SDS011;46848;51.980;5.918;2023-08-17T16:13:40;6.95;;;6.25;;
43519;SDS011;46848;51.980;5.918;2023-08-17T16:16:05;7.20;;;5.68;;
43519;SDS011;46848;51.980;5.918;2023-08-17T16:18:31;8.27;;;5.85;;
43519;SDS011;46848;51.980;5.918;2023-08-17T16:20:57;7.85;;;6.15;;
43519;SDS011;46848;51.980;5.918;2023-08-17T16:23:22;8.30;;;6.18;;
43519;SDS011;46848;51.980;5.918;2023-08-17T16:25:48;8.88;;;6.88;;
43519;SDS011;46848;51.980;5.918;2023-08-17T16:28:13;8.18;;;6.50;;
43519;SDS011;46848;51.980;5.918;2023-08-17T16:30:39;9.15;;;6.45;;
43519;SDS011;46848;51.980;5.918;2023-08-17T16:33:06;7.47;;;5.80;;
43519;SDS011;46848;51.980;5.918;2023-08-17T16:35:32;7.05;;;5.47;;
43519;SDS011;46848;51.980;5.918;2023-08-17T16:37:58;8.02;;;6.05;;
43519;SDS011;46848;51.980;5.918;2023-08-17T16:40:24;7.40;;;5.25;;
43519;SDS011;46848;51.980;5.918;2023-08-17T16:42:49;9.15;;;5.93;;
43519;SDS011;46848;51.980;5.918;2023-08-17T16:45:15;9.07;;;6.20;;
43519;SDS011;46848;51.980;5.918;2023-08-17T16:47:43;8.48;;;6.70;;
43519;SDS011;46848;51.980;5.918;2023-08-17T16:50:09;9.43;;;7.65;;
43519;SDS011;46848;51.980;5.918;2023-08-17T16:52:35;10.40;;;6.85;;
43519;SDS011;46848;51.980;5.918;2023-08-17T16:55:01;8.48;;;6.30;;
43519;SDS011;46848;51.980;5.918;2023-08-17T16:57:26;9.05;;;6.13;;
43519;SDS011;46848;51.980;5.918;2023-08-17T16:59:52;8.43;;;6.10;;
43519;SDS011;46848;51.980;5.918;2023-08-17T17:02:17;9.38;;;6.43;;
43519;SDS011;46848;51.980;5.918;2023-08-17T17:04:43;8.00;;;5.95;;
43519;SDS011;46848;51.980;5.918;2023-08-17T17:07:09;7.85;;;6.68;;
43519;SDS011;46848;51.980;5.918;2023-08-17T17:09:34;9.05;;;7.35;;
43519;SDS011;46848;51.980;5.918;2023-08-17T17:12:01;10.85;;;7.85;;
43519;SDS011;46848;51.980;5.918;2023-08-17T17:14:29;9.43;;;7.07;;
43519;SDS011;46848;51.980;5.918;2023-08-17T17:16:55;10.77;;;7.10;;
43519;SDS011;46848;51.980;5.918;2023-08-17T17:19:21;10.10;;;7.40;;
43519;SDS011;46848;51.980;5.918;2023-08-17T17:21:46;10.48;;;7.57;;
43519;SDS011;46848;51.980;5.918;2023-08-17T17:24:12;10.73;;;7.55;;
43519;SDS011;46848;51.980;5.918;2023-08-17T17:26:38;8.45;;;7.03;;
43519;SDS011;46848;51.980;5.918;2023-08-17T17:29:04;10.30;;;7.90;;
43519;SDS011;46848;51.980;5.918;2023-08-17T17:31:31;10.02;;;7.85;;
43519;SDS011;46848;51.980;5.918;2023-08-17T17:33:57;11.68;;;7.43;;
43519;SDS011;46848;51.980;5.918;2023-08-17T17:36:23;9.02;;;7.10;;
43519;SDS011;46848;51.980;5.918;2023-08-17T17:38:49;7.63;;;6.82;;
43519;SDS011;46848;51.980;5.918;2023-08-17T17:41:14;9.07;;;6.95;;
43519;SDS011;46848;51.980;5.918;2023-08-17T17:43:40;8.57;;;7.25;;
43519;SDS011;46848;51.980;5.918;2023-08-17T17:46:05;10.23;;;7.60;;
43519;SDS011;46848;51.980;5.918;2023-08-17T17:48:31;9.65;;;6.97;;
43519;SDS011;46848;51.980;5.918;2023-08-17T17:50:57;9.60;;;6.82;;
43519;SDS011;46848;51.980;5.918;2023-08-17T17:53:23;12.20;;;6.78;;
43519;SDS011;46848;51.980;5.918;2023-08-17T17:55:49;10.60;;;6.55;;